sensor_id;sensor_type;location;lat;lon;timestamp;temperature;humidity
44111;DHT22;29774;52.664;5.074;2024-03-17T00:01:37;5.30;81.60
44111;DHT22;29774;52.664;5.074;2024-03-17T00:04:03;5.30;81.70
44111;DHT22;29774;52.664;5.074;2024-03-17T00:06:30;5.40;81.70
44111;DHT22;29774;52.664;5.074;2024-03-17T00:08:56;5.50;81.80
44111;DHT22;29774;52.664;5.074;2024-03-17T00:11:22;5.60;81.90
44111;DHT22;29774;52.664;5.074;2024-03-17T00:13:47;5.60;81.90
44111;DHT22;29774;52.664;5.074;2024-03-17T00:16:13;5.70;81.90
44111;DHT22;29774;52.664;5.074;2024-03-17T00:18:39;5.70;82.00
44111;DHT22;29774;52.664;5.074;2024-03-17T00:21:06;5.80;82.00
44111;DHT22;29774;52.664;5.074;2024-03-17T00:23:31;5.90;82.00
44111;DHT22;29774;52.664;5.074;2024-03-17T00:25:57;6.00;82.00
44111;DHT22;29774;52.664;5.074;2024-03-17T00:28:23;6.00;82.00
44111;DHT22;29774;52.664;5.074;2024-03-17T00:30:50;6.00;82.00
44111;DHT22;29774;52.664;5.074;2024-03-17T00:33:15;6.10;82.00
44111;DHT22;29774;52.664;5.074;2024-03-17T00:35:41;6.10;81.90
44111;DHT22;29774;52.664;5.074;2024-03-17T00:38:07;6.10;81.80
44111;DHT22;29774;52.664;5.074;2024-03-17T00:40:39;6.10;81.70
44111;DHT22;29774;52.664;5.074;2024-03-17T00:43:06;6.20;81.60
44111;DHT22;29774;52.664;5.074;2024-03-17T00:45:32;6.30;81.40
44111;DHT22;29774;52.664;5.074;2024-03-17T00:47:57;6.30;81.20
44111;DHT22;29774;52.664;5.074;2024-03-17T00:50:23;6.40;81.00
44111;DHT22;29774;52.664;5.074;2024-03-17T00:52:49;6.40;81.00
44111;DHT22;29774;52.664;5.074;2024-03-17T00:55:14;6.50;81.00
44111;DHT22;29774;52.664;5.074;2024-03-17T00:57:41;6.60;80.80
44111;DHT22;29774;52.664;5.074;2024-03-17T01:00:07;6.60;80.40
44111;DHT22;29774;52.664;5.074;2024-03-17T01:02:35;6.60;80.30
44111;DHT22;29774;52.664;5.074;2024-03-17T01:05:01;6.70;80.20
44111;DHT22;29774;52.664;5.074;2024-03-17T01:07:26;6.70;80.10
44111;DHT22;29774;52.664;5.074;2024-03-17T01:09:52;6.70;79.90
44111;DHT22;29774;52.664;5.074;2024-03-17T01:12:18;6.70;79.80
44111;DHT22;29774;52.664;5.074;2024-03-17T01:14:43;6.70;79.50
44111;DHT22;29774;52.664;5.074;2024-03-17T01:17:09;6.90;79.30
44111;DHT22;29774;52.664;5.074;2024-03-17T01:19:35;6.90;79.10
44111;DHT22;29774;52.664;5.074;2024-03-17T01:22:00;6.90;79.00
44111;DHT22;29774;52.664;5.074;2024-03-17T01:24:26;6.90;78.60
44111;DHT22;29774;52.664;5.074;2024-03-17T01:26:59;6.90;78.60
44111;DHT22;29774;52.664;5.074;2024-03-17T01:29:26;7.00;78.60
44111;DHT22;29774;52.664;5.074;2024-03-17T01:31:51;7.00;78.00
44111;DHT22;29774;52.664;5.074;2024-03-17T01:34:18;7.10;77.90
44111;DHT22;29774;52.664;5.074;2024-03-17T01:36:44;7.20;77.80
44111;DHT22;29774;52.664;5.074;2024-03-17T01:39:10;7.10;77.60
44111;DHT22;29774;52.664;5.074;2024-03-17T01:41:36;7.10;77.30
44111;DHT22;29774;52.664;5.074;2024-03-17T01:44:02;7.10;77.30
44111;DHT22;29774;52.664;5.074;2024-03-17T01:46:28;7.10;77.40
44111;DHT22;29774;52.664;5.074;2024-03-17T01:48:54;7.10;77.50
44111;DHT22;29774;52.664;5.074;2024-03-17T01:51:20;7.10;77.50
44111;DHT22;29774;52.664;5.074;2024-03-17T01:53:46;7.10;77.50
44111;DHT22;29774;52.664;5.074;2024-03-17T01:56:14;7.10;77.60
44111;DHT22;29774;52.664;5.074;2024-03-17T01:58:43;7.20;77.70
44111;DHT22;29774;52.664;5.074;2024-03-17T02:01:10;7.20;77.60
44111;DHT22;29774;52.664;5.074;2024-03-17T02:03:35;7.20;77.50
44111;DHT22;29774;52.664;5.074;2024-03-17T02:06:01;7.20;77.50
44111;DHT22;29774;52.664;5.074;2024-03-17T02:08:27;7.20;77.60
44111;DHT22;29774;52.664;5.074;2024-03-17T02:10:53;7.20;77.70
44111;DHT22;29774;52.664;5.074;2024-03-17T02:13:23;7.30;77.60
44111;DHT22;29774;52.664;5.074;2024-03-17T02:15:49;7.20;77.60
44111;DHT22;29774;52.664;5.074;2024-03-17T02:18:14;7.30;77.60
44111;DHT22;29774;52.664;5.074;2024-03-17T02:20:40;7.30;77.60
44111;DHT22;29774;52.664;5.074;2024-03-17T02:23:23;7.30;77.60
44111;DHT22;29774;52.664;5.074;2024-03-17T02:25:52;7.30;77.50
44111;DHT22;29774;52.664;5.074;2024-03-17T02:28:18;7.30;77.60
44111;DHT22;29774;52.664;5.074;2024-03-17T02:30:44;7.30;77.60
44111;DHT22;29774;52.664;5.074;2024-03-17T02:33:10;7.40;77.70
44111;DHT22;29774;52.664;5.074;2024-03-17T02:35:35;7.40;77.60
44111;DHT22;29774;52.664;5.074;2024-03-17T02:38:01;7.40;77.70
44111;DHT22;29774;52.664;5.074;2024-03-17T02:40:27;7.40;77.70
44111;DHT22;29774;52.664;5.074;2024-03-17T02:42:54;7.40;77.70
44111;DHT22;29774;52.664;5.074;2024-03-17T02:45:20;7.50;77.60
44111;DHT22;29774;52.664;5.074;2024-03-17T02:47:46;7.60;77.70
44111;DHT22;29774;52.664;5.074;2024-03-17T02:50:12;7.60;77.70
44111;DHT22;29774;52.664;5.074;2024-03-17T02:52:38;7.60;77.80
44111;DHT22;29774;52.664;5.074;2024-03-17T02:55:04;7.60;77.90
44111;DHT22;29774;52.664;5.074;2024-03-17T02:57:31;7.70;77.90
44111;DHT22;29774;52.664;5.074;2024-03-17T03:00:00;7.70;77.90
44111;DHT22;29774;52.664;5.074;2024-03-17T03:02:29;7.70;77.80
44111;DHT22;29774;52.664;5.074;2024-03-17T03:04:55;7.70;77.70
44111;DHT22;29774;52.664;5.074;2024-03-17T03:07:20;7.70;77.70
44111;DHT22;29774;52.664;5.074;2024-03-17T03:09:46;7.70;77.40
44111;DHT22;29774;52.664;5.074;2024-03-17T03:12:12;7.70;77.40
44111;DHT22;29774;52.664;5.074;2024-03-17T03:14:38;7.80;77.30
44111;DHT22;29774;52.664;5.074;2024-03-17T03:17:03;7.80;77.30
44111;DHT22;29774;52.664;5.074;2024-03-17T03:19:29;7.80;77.10
44111;DHT22;29774;52.664;5.074;2024-03-17T03:21:55;7.80;77.10
44111;DHT22;29774;52.664;5.074;2024-03-17T03:24:21;7.80;77.10
44111;DHT22;29774;52.664;5.074;2024-03-17T03:26:47;7.80;77.00
44111;DHT22;29774;52.664;5.074;2024-03-17T03:29:14;7.80;77.00
44111;DHT22;29774;52.664;5.074;2024-03-17T03:31:40;7.80;77.00
44111;DHT22;29774;52.664;5.074;2024-03-17T03:34:06;7.80;77.10
44111;DHT22;29774;52.664;5.074;2024-03-17T03:36:34;7.80;77.10
44111;DHT22;29774;52.664;5.074;2024-03-17T03:39:00;7.90;77.10
44111;DHT22;29774;52.664;5.074;2024-03-17T03:41:26;7.80;77.10
44111;DHT22;29774;52.664;5.074;2024-03-17T03:43:52;7.90;77.00
44111;DHT22;29774;52.664;5.074;2024-03-17T03:46:18;7.90;76.90
44111;DHT22;29774;52.664;5.074;2024-03-17T03:48:43;7.90;76.80
44111;DHT22;29774;52.664;5.074;2024-03-17T03:51:09;8.00;76.80
44111;DHT22;29774;52.664;5.074;2024-03-17T03:53:36;8.00;76.50
44111;DHT22;29774;52.664;5.074;2024-03-17T03:56:04;8.00;76.50
44111;DHT22;29774;52.664;5.074;2024-03-17T03:58:33;7.90;76.70
44111;DHT22;29774;52.664;5.074;2024-03-17T04:01:03;7.90;76.90
44111;DHT22;29774;52.664;5.074;2024-03-17T04:03:28;7.90;77.00
44111;DHT22;29774;52.664;5.074;2024-03-17T04:06:04;7.90;77.10
44111;DHT22;29774;52.664;5.074;2024-03-17T04:08:31;8.00;77.00
44111;DHT22;29774;52.664;5.074;2024-03-17T04:10:57;7.90;77.00
44111;DHT22;29774;52.664;5.074;2024-03-17T04:13:23;8.00;77.10
44111;DHT22;29774;52.664;5.074;2024-03-17T04:15:48;8.00;77.00
44111;DHT22;29774;52.664;5.074;2024-03-17T04:18:15;8.00;77.00
44111;DHT22;29774;52.664;5.074;2024-03-17T04:20:43;8.00;77.10
44111;DHT22;29774;52.664;5.074;2024-03-17T04:23:08;7.90;77.20
44111;DHT22;29774;52.664;5.074;2024-03-17T04:25:34;8.00;77.40
44111;DHT22;29774;52.664;5.074;2024-03-17T04:28:00;8.00;77.40
44111;DHT22;29774;52.664;5.074;2024-03-17T04:30:25;8.00;77.40
44111;DHT22;29774;52.664;5.074;2024-03-17T04:32:51;8.00;77.60
44111;DHT22;29774;52.664;5.074;2024-03-17T04:35:17;8.00;77.60
44111;DHT22;29774;52.664;5.074;2024-03-17T04:37:43;8.00;77.60
44111;DHT22;29774;52.664;5.074;2024-03-17T04:40:09;8.00;77.80
44111;DHT22;29774;52.664;5.074;2024-03-17T04:42:35;8.00;77.80
44111;DHT22;29774;52.664;5.074;2024-03-17T04:45:01;8.10;77.90
44111;DHT22;29774;52.664;5.074;2024-03-17T04:47:26;8.10;77.90
44111;DHT22;29774;52.664;5.074;2024-03-17T04:49:52;8.10;78.00
44111;DHT22;29774;52.664;5.074;2024-03-17T04:52:18;8.10;78.20
44111;DHT22;29774;52.664;5.074;2024-03-17T04:54:44;8.10;78.30
44111;DHT22;29774;52.664;5.074;2024-03-17T04:57:10;8.00;78.50
44111;DHT22;29774;52.664;5.074;2024-03-17T04:59:35;8.00;78.60
44111;DHT22;29774;52.664;5.074;2024-03-17T05:02:01;8.00;78.60
44111;DHT22;29774;52.664;5.074;2024-03-17T05:04:28;8.10;78.60
44111;DHT22;29774;52.664;5.074;2024-03-17T05:06:53;8.10;78.70
44111;DHT22;29774;52.664;5.074;2024-03-17T05:09:19;8.10;78.60
44111;DHT22;29774;52.664;5.074;2024-03-17T05:11:46;8.10;78.70
44111;DHT22;29774;52.664;5.074;2024-03-17T05:14:12;8.20;78.70
44111;DHT22;29774;52.664;5.074;2024-03-17T05:16:38;8.10;78.70
44111;DHT22;29774;52.664;5.074;2024-03-17T05:19:04;8.10;78.70
44111;DHT22;29774;52.664;5.074;2024-03-17T05:21:30;8.00;78.80
44111;DHT22;29774;52.664;5.074;2024-03-17T05:24:01;8.10;79.00
44111;DHT22;29774;52.664;5.074;2024-03-17T05:26:27;8.00;79.00
44111;DHT22;29774;52.664;5.074;2024-03-17T05:28:53;8.00;79.10
44111;DHT22;29774;52.664;5.074;2024-03-17T05:31:19;8.00;79.10
44111;DHT22;29774;52.664;5.074;2024-03-17T05:33:47;8.00;79.00
44111;DHT22;29774;52.664;5.074;2024-03-17T05:36:13;8.10;79.00
44111;DHT22;29774;52.664;5.074;2024-03-17T05:38:39;8.00;79.10
44111;DHT22;29774;52.664;5.074;2024-03-17T05:41:06;8.10;79.10
44111;DHT22;29774;52.664;5.074;2024-03-17T05:43:33;8.00;79.20
44111;DHT22;29774;52.664;5.074;2024-03-17T05:46:02;8.10;79.20
44111;DHT22;29774;52.664;5.074;2024-03-17T05:48:31;8.00;79.30
44111;DHT22;29774;52.664;5.074;2024-03-17T05:50:57;8.10;79.20
44111;DHT22;29774;52.664;5.074;2024-03-17T05:53:23;8.10;79.20
44111;DHT22;29774;52.664;5.074;2024-03-17T05:55:50;8.10;79.30
44111;DHT22;29774;52.664;5.074;2024-03-17T05:58:15;8.10;79.40
44111;DHT22;29774;52.664;5.074;2024-03-17T06:00:41;8.00;79.40
44111;DHT22;29774;52.664;5.074;2024-03-17T06:03:07;8.00;79.60
44111;DHT22;29774;52.664;5.074;2024-03-17T06:05:36;8.00;79.60
44111;DHT22;29774;52.664;5.074;2024-03-17T06:08:03;8.00;79.70
44111;DHT22;29774;52.664;5.074;2024-03-17T06:10:30;8.00;79.70
44111;DHT22;29774;52.664;5.074;2024-03-17T06:12:56;8.00;79.70
44111;DHT22;29774;52.664;5.074;2024-03-17T06:15:23;8.00;79.70
44111;DHT22;29774;52.664;5.074;2024-03-17T06:17:49;8.00;79.60
44111;DHT22;29774;52.664;5.074;2024-03-17T06:20:17;8.00;79.50
44111;DHT22;29774;52.664;5.074;2024-03-17T06:22:43;8.10;79.20
44111;DHT22;29774;52.664;5.074;2024-03-17T06:25:09;8.20;79.00
44111;DHT22;29774;52.664;5.074;2024-03-17T06:27:35;8.20;78.90
44111;DHT22;29774;52.664;5.074;2024-03-17T06:30:01;8.20;78.70
44111;DHT22;29774;52.664;5.074;2024-03-17T06:32:31;8.20;78.80
44111;DHT22;29774;52.664;5.074;2024-03-17T06:35:07;8.30;78.20
44111;DHT22;29774;52.664;5.074;2024-03-17T06:37:33;8.30;78.20
44111;DHT22;29774;52.664;5.074;2024-03-17T06:39:58;8.30;78.10
44111;DHT22;29774;52.664;5.074;2024-03-17T06:42:24;8.40;77.70
44111;DHT22;29774;52.664;5.074;2024-03-17T06:44:49;8.40;77.60
44111;DHT22;29774;52.664;5.074;2024-03-17T06:47:16;8.50;77.40
44111;DHT22;29774;52.664;5.074;2024-03-17T06:49:41;8.50;77.30
44111;DHT22;29774;52.664;5.074;2024-03-17T06:52:08;8.60;77.30
44111;DHT22;29774;52.664;5.074;2024-03-17T06:54:34;8.60;77.10
44111;DHT22;29774;52.664;5.074;2024-03-17T06:57:01;8.60;77.10
44111;DHT22;29774;52.664;5.074;2024-03-17T06:59:26;8.70;76.90
44111;DHT22;29774;52.664;5.074;2024-03-17T07:01:52;8.60;76.90
44111;DHT22;29774;52.664;5.074;2024-03-17T07:04:17;8.60;77.20
44111;DHT22;29774;52.664;5.074;2024-03-17T07:06:43;8.60;77.10
44111;DHT22;29774;52.664;5.074;2024-03-17T07:09:09;8.70;77.10
44111;DHT22;29774;52.664;5.074;2024-03-17T07:11:35;8.70;77.00
44111;DHT22;29774;52.664;5.074;2024-03-17T07:14:01;8.70;76.80
44111;DHT22;29774;52.664;5.074;2024-03-17T07:16:26;8.80;76.60
44111;DHT22;29774;52.664;5.074;2024-03-17T07:18:52;8.80;76.20
44111;DHT22;29774;52.664;5.074;2024-03-17T07:21:21;8.90;76.10
44111;DHT22;29774;52.664;5.074;2024-03-17T07:23:47;8.90;76.00
44111;DHT22;29774;52.664;5.074;2024-03-17T07:26:13;8.90;75.80
44111;DHT22;29774;52.664;5.074;2024-03-17T07:28:40;9.00;75.90
44111;DHT22;29774;52.664;5.074;2024-03-17T07:31:08;9.00;75.60
44111;DHT22;29774;52.664;5.074;2024-03-17T07:33:34;9.10;75.60
44111;DHT22;29774;52.664;5.074;2024-03-17T07:36:00;9.20;75.50
44111;DHT22;29774;52.664;5.074;2024-03-17T07:38:27;9.10;75.30
44111;DHT22;29774;52.664;5.074;2024-03-17T07:41:01;9.10;75.60
44111;DHT22;29774;52.664;5.074;2024-03-17T07:43:28;9.10;75.70
44111;DHT22;29774;52.664;5.074;2024-03-17T07:46:12;9.20;75.50
44111;DHT22;29774;52.664;5.074;2024-03-17T07:48:40;9.20;75.40
44111;DHT22;29774;52.664;5.074;2024-03-17T07:51:11;9.20;75.20
44111;DHT22;29774;52.664;5.074;2024-03-17T07:53:38;9.20;75.30
44111;DHT22;29774;52.664;5.074;2024-03-17T07:56:12;9.30;75.00
44111;DHT22;29774;52.664;5.074;2024-03-17T07:58:40;9.40;74.80
44111;DHT22;29774;52.664;5.074;2024-03-17T08:01:07;9.40;74.60
44111;DHT22;29774;52.664;5.074;2024-03-17T08:03:35;9.50;74.70
44111;DHT22;29774;52.664;5.074;2024-03-17T08:06:03;9.50;74.30
44111;DHT22;29774;52.664;5.074;2024-03-17T08:08:29;9.60;74.40
44111;DHT22;29774;52.664;5.074;2024-03-17T08:10:54;9.70;74.30
44111;DHT22;29774;52.664;5.074;2024-03-17T08:13:21;9.70;74.40
44111;DHT22;29774;52.664;5.074;2024-03-17T08:15:58;9.70;74.10
44111;DHT22;29774;52.664;5.074;2024-03-17T08:18:25;9.80;74.00
44111;DHT22;29774;52.664;5.074;2024-03-17T08:20:52;9.90;73.40
44111;DHT22;29774;52.664;5.074;2024-03-17T08:23:19;9.90;73.20
44111;DHT22;29774;52.664;5.074;2024-03-17T08:25:59;9.90;73.20
44111;DHT22;29774;52.664;5.074;2024-03-17T08:28:26;9.90;73.10
44111;DHT22;29774;52.664;5.074;2024-03-17T08:30:55;9.90;73.30
44111;DHT22;29774;52.664;5.074;2024-03-17T08:33:22;10.00;73.20
44111;DHT22;29774;52.664;5.074;2024-03-17T08:38:23;10.00;73.20
44111;DHT22;29774;52.664;5.074;2024-03-17T08:40:52;10.10;72.80
44111;DHT22;29774;52.664;5.074;2024-03-17T08:43:19;10.10;73.10
44111;DHT22;29774;52.664;5.074;2024-03-17T08:45:45;10.10;73.00
44111;DHT22;29774;52.664;5.074;2024-03-17T08:48:19;10.10;73.00
44111;DHT22;29774;52.664;5.074;2024-03-17T08:50:51;10.10;72.90
44111;DHT22;29774;52.664;5.074;2024-03-17T08:53:16;10.20;73.00
44111;DHT22;29774;52.664;5.074;2024-03-17T08:55:42;10.20;73.10
44111;DHT22;29774;52.664;5.074;2024-03-17T08:58:08;10.20;72.70
44111;DHT22;29774;52.664;5.074;2024-03-17T09:00:34;10.20;72.40
44111;DHT22;29774;52.664;5.074;2024-03-17T09:03:02;10.20;72.70
44111;DHT22;29774;52.664;5.074;2024-03-17T09:05:28;10.20;72.60
44111;DHT22;29774;52.664;5.074;2024-03-17T09:07:53;10.20;72.80
44111;DHT22;29774;52.664;5.074;2024-03-17T09:10:20;10.20;72.90
44111;DHT22;29774;52.664;5.074;2024-03-17T09:12:46;10.30;73.20
44111;DHT22;29774;52.664;5.074;2024-03-17T09:15:13;10.40;73.20
44111;DHT22;29774;52.664;5.074;2024-03-17T09:17:39;10.40;73.60
44111;DHT22;29774;52.664;5.074;2024-03-17T09:20:06;10.50;73.60
44111;DHT22;29774;52.664;5.074;2024-03-17T09:22:37;10.60;73.20
44111;DHT22;29774;52.664;5.074;2024-03-17T09:25:06;10.60;73.40
44111;DHT22;29774;52.664;5.074;2024-03-17T09:27:33;10.80;73.40
44111;DHT22;29774;52.664;5.074;2024-03-17T09:30:00;10.90;73.30
44111;DHT22;29774;52.664;5.074;2024-03-17T09:32:25;10.90;73.10
44111;DHT22;29774;52.664;5.074;2024-03-17T09:34:51;11.00;73.30
44111;DHT22;29774;52.664;5.074;2024-03-17T09:37:17;11.10;72.60
44111;DHT22;29774;52.664;5.074;2024-03-17T09:39:42;11.10;72.10
44111;DHT22;29774;52.664;5.074;2024-03-17T09:42:17;11.20;72.10
44111;DHT22;29774;52.664;5.074;2024-03-17T09:44:46;11.30;71.00
44111;DHT22;29774;52.664;5.074;2024-03-17T09:47:18;11.30;71.30
44111;DHT22;29774;52.664;5.074;2024-03-17T09:49:44;11.50;71.30
44111;DHT22;29774;52.664;5.074;2024-03-17T09:52:22;11.50;70.90
44111;DHT22;29774;52.664;5.074;2024-03-17T09:55:01;11.50;70.30
44111;DHT22;29774;52.664;5.074;2024-03-17T09:57:36;11.50;69.80
44111;DHT22;29774;52.664;5.074;2024-03-17T10:00:05;11.50;69.40
44111;DHT22;29774;52.664;5.074;2024-03-17T10:02:45;11.40;69.70
44111;DHT22;29774;52.664;5.074;2024-03-17T10:05:24;11.40;70.10
44111;DHT22;29774;52.664;5.074;2024-03-17T10:07:53;11.40;70.10
44111;DHT22;29774;52.664;5.074;2024-03-17T10:10:20;11.40;70.40
44111;DHT22;29774;52.664;5.074;2024-03-17T10:12:50;11.50;70.60
44111;DHT22;29774;52.664;5.074;2024-03-17T10:15:19;11.60;70.70
44111;DHT22;29774;52.664;5.074;2024-03-17T10:17:46;11.60;70.40
44111;DHT22;29774;52.664;5.074;2024-03-17T10:23:04;11.70;70.60
44111;DHT22;29774;52.664;5.074;2024-03-17T10:25:32;11.70;70.80
44111;DHT22;29774;52.664;5.074;2024-03-17T10:27:59;11.80;70.80
44111;DHT22;29774;52.664;5.074;2024-03-17T10:30:26;11.90;70.70
44111;DHT22;29774;52.664;5.074;2024-03-17T10:32:58;12.00;70.80
44111;DHT22;29774;52.664;5.074;2024-03-17T10:35:36;12.10;70.80
44111;DHT22;29774;52.664;5.074;2024-03-17T10:38:06;12.20;70.50
44111;DHT22;29774;52.664;5.074;2024-03-17T10:40:33;12.30;70.20
44111;DHT22;29774;52.664;5.074;2024-03-17T10:43:02;12.40;69.60
44111;DHT22;29774;52.664;5.074;2024-03-17T10:45:28;12.50;69.10
44111;DHT22;29774;52.664;5.074;2024-03-17T10:48:01;12.60;68.40
44111;DHT22;29774;52.664;5.074;2024-03-17T10:50:30;12.70;68.30
44111;DHT22;29774;52.664;5.074;2024-03-17T10:53:01;12.80;68.00
44111;DHT22;29774;52.664;5.074;2024-03-17T10:55:32;13.10;66.40
44111;DHT22;29774;52.664;5.074;2024-03-17T10:58:04;13.10;66.90
44111;DHT22;29774;52.664;5.074;2024-03-17T11:00:34;13.10;66.60
44111;DHT22;29774;52.664;5.074;2024-03-17T11:03:01;13.10;66.70
44111;DHT22;29774;52.664;5.074;2024-03-17T11:05:29;13.20;66.60
44111;DHT22;29774;52.664;5.074;2024-03-17T11:07:59;13.20;66.80
44111;DHT22;29774;52.664;5.074;2024-03-17T11:10:30;13.20;66.00
44111;DHT22;29774;52.664;5.074;2024-03-17T11:12:58;13.10;65.90
44111;DHT22;29774;52.664;5.074;2024-03-17T11:20:41;13.10;66.50
44111;DHT22;29774;52.664;5.074;2024-03-17T11:23:08;13.20;66.70
44111;DHT22;29774;52.664;5.074;2024-03-17T11:25:38;13.20;66.80
44111;DHT22;29774;52.664;5.074;2024-03-17T11:28:07;13.20;66.40
44111;DHT22;29774;52.664;5.074;2024-03-17T11:41:38;13.20;66.20
44111;DHT22;29774;52.664;5.074;2024-03-17T11:47:01;13.20;65.90
44111;DHT22;29774;52.664;5.074;2024-03-17T11:49:36;13.20;66.10
44111;DHT22;29774;52.664;5.074;2024-03-17T11:52:11;13.30;65.90
44111;DHT22;29774;52.664;5.074;2024-03-17T11:54:40;13.20;66.00
44111;DHT22;29774;52.664;5.074;2024-03-17T11:57:07;13.30;65.80
44111;DHT22;29774;52.664;5.074;2024-03-17T11:59:34;13.30;66.20
44111;DHT22;29774;52.664;5.074;2024-03-17T12:02:00;13.40;65.80
44111;DHT22;29774;52.664;5.074;2024-03-17T12:04:27;13.40;65.80
44111;DHT22;29774;52.664;5.074;2024-03-17T12:06:58;13.30;65.90
44111;DHT22;29774;52.664;5.074;2024-03-17T12:09:26;13.30;65.40
44111;DHT22;29774;52.664;5.074;2024-03-17T12:11:59;13.30;65.60
44111;DHT22;29774;52.664;5.074;2024-03-17T12:14:25;13.20;65.80
44111;DHT22;29774;52.664;5.074;2024-03-17T12:16:53;13.30;65.90
44111;DHT22;29774;52.664;5.074;2024-03-17T12:19:20;13.20;66.30
44111;DHT22;29774;52.664;5.074;2024-03-17T12:21:50;13.30;66.50
44111;DHT22;29774;52.664;5.074;2024-03-17T12:24:18;13.30;66.20
44111;DHT22;29774;52.664;5.074;2024-03-17T12:26:45;13.30;65.90
44111;DHT22;29774;52.664;5.074;2024-03-17T12:29:29;13.30;66.20
44111;DHT22;29774;52.664;5.074;2024-03-17T12:31:59;13.30;66.40
44111;DHT22;29774;52.664;5.074;2024-03-17T12:34:27;13.30;65.80
44111;DHT22;29774;52.664;5.074;2024-03-17T12:36:55;13.30;65.80
44111;DHT22;29774;52.664;5.074;2024-03-17T12:39:23;13.30;65.90
44111;DHT22;29774;52.664;5.074;2024-03-17T12:42:08;13.30;66.20
44111;DHT22;29774;52.664;5.074;2024-03-17T12:44:36;13.30;66.20
44111;DHT22;29774;52.664;5.074;2024-03-17T12:47:04;13.20;66.40
44111;DHT22;29774;52.664;5.074;2024-03-17T12:49:32;13.30;66.50
44111;DHT22;29774;52.664;5.074;2024-03-17T12:52:02;13.30;66.30
44111;DHT22;29774;52.664;5.074;2024-03-17T12:54:28;13.30;66.40
44111;DHT22;29774;52.664;5.074;2024-03-17T12:57:05;13.40;65.80
44111;DHT22;29774;52.664;5.074;2024-03-17T12:59:50;13.40;66.20
44111;DHT22;29774;52.664;5.074;2024-03-17T13:02:34;13.40;66.30
44111;DHT22;29774;52.664;5.074;2024-03-17T13:05:20;13.40;66.10
44111;DHT22;29774;52.664;5.074;2024-03-17T13:07:49;13.50;65.90
44111;DHT22;29774;52.664;5.074;2024-03-17T13:10:19;13.50;66.20
44111;DHT22;29774;52.664;5.074;2024-03-17T13:12:45;13.50;66.10
44111;DHT22;29774;52.664;5.074;2024-03-17T13:15:15;13.60;66.10
44111;DHT22;29774;52.664;5.074;2024-03-17T13:17:43;13.70;65.80
44111;DHT22;29774;52.664;5.074;2024-03-17T13:20:13;13.60;65.70
44111;DHT22;29774;52.664;5.074;2024-03-17T13:22:40;13.60;65.10
44111;DHT22;29774;52.664;5.074;2024-03-17T13:27:40;13.70;65.50
44111;DHT22;29774;52.664;5.074;2024-03-17T13:30:08;13.70;65.80
44111;DHT22;29774;52.664;5.074;2024-03-17T13:32:35;13.70;65.90
44111;DHT22;29774;52.664;5.074;2024-03-17T13:35:01;13.70;65.80
44111;DHT22;29774;52.664;5.074;2024-03-17T13:37:27;13.70;66.00
44111;DHT22;29774;52.664;5.074;2024-03-17T13:39:53;13.70;66.50
44111;DHT22;29774;52.664;5.074;2024-03-17T13:42:18;13.60;66.90
44111;DHT22;29774;52.664;5.074;2024-03-17T13:44:45;13.60;67.30
44111;DHT22;29774;52.664;5.074;2024-03-17T13:47:12;13.60;67.70
44111;DHT22;29774;52.664;5.074;2024-03-17T13:49:39;13.50;68.30
44111;DHT22;29774;52.664;5.074;2024-03-17T13:52:05;13.40;68.80
44111;DHT22;29774;52.664;5.074;2024-03-17T13:54:30;13.40;69.40
44111;DHT22;29774;52.664;5.074;2024-03-17T13:56:57;13.30;69.70
44111;DHT22;29774;52.664;5.074;2024-03-17T13:59:23;13.30;70.30
44111;DHT22;29774;52.664;5.074;2024-03-17T14:01:50;13.30;70.50
44111;DHT22;29774;52.664;5.074;2024-03-17T14:04:16;13.20;71.80
44111;DHT22;29774;52.664;5.074;2024-03-17T14:06:46;13.20;72.00
44111;DHT22;29774;52.664;5.074;2024-03-17T14:09:12;13.10;72.00
44111;DHT22;29774;52.664;5.074;2024-03-17T14:11:38;13.10;72.40
44111;DHT22;29774;52.664;5.074;2024-03-17T14:14:05;13.00;72.40
44111;DHT22;29774;52.664;5.074;2024-03-17T14:16:31;13.00;72.80
44111;DHT22;29774;52.664;5.074;2024-03-17T14:18:58;13.00;72.70
44111;DHT22;29774;52.664;5.074;2024-03-17T14:21:23;13.00;72.90
44111;DHT22;29774;52.664;5.074;2024-03-17T14:23:49;13.00;73.10
44111;DHT22;29774;52.664;5.074;2024-03-17T14:26:15;13.00;73.30
44111;DHT22;29774;52.664;5.074;2024-03-17T14:28:40;13.00;73.50
44111;DHT22;29774;52.664;5.074;2024-03-17T14:31:06;13.00;73.60
44111;DHT22;29774;52.664;5.074;2024-03-17T14:33:32;12.90;73.70
44111;DHT22;29774;52.664;5.074;2024-03-17T14:35:57;12.90;73.60
44111;DHT22;29774;52.664;5.074;2024-03-17T14:38:23;12.90;73.20
44111;DHT22;29774;52.664;5.074;2024-03-17T14:40:52;12.90;73.10
44111;DHT22;29774;52.664;5.074;2024-03-17T14:43:19;12.90;72.80
44111;DHT22;29774;52.664;5.074;2024-03-17T14:45:45;12.90;73.20
44111;DHT22;29774;52.664;5.074;2024-03-17T14:48:11;12.90;73.80
44111;DHT22;29774;52.664;5.074;2024-03-17T14:50:38;12.90;74.20
44111;DHT22;29774;52.664;5.074;2024-03-17T14:53:04;12.80;74.90
44111;DHT22;29774;52.664;5.074;2024-03-17T14:55:31;12.70;75.60
44111;DHT22;29774;52.664;5.074;2024-03-17T14:57:56;12.70;76.00
44111;DHT22;29774;52.664;5.074;2024-03-17T15:00:22;12.70;76.20
44111;DHT22;29774;52.664;5.074;2024-03-17T15:02:51;12.70;76.30
44111;DHT22;29774;52.664;5.074;2024-03-17T15:05:17;12.70;76.10
44111;DHT22;29774;52.664;5.074;2024-03-17T15:07:44;12.70;76.20
44111;DHT22;29774;52.664;5.074;2024-03-17T15:10:10;12.70;75.80
44111;DHT22;29774;52.664;5.074;2024-03-17T15:12:38;12.70;75.80
44111;DHT22;29774;52.664;5.074;2024-03-17T15:15:06;12.80;75.30
44111;DHT22;29774;52.664;5.074;2024-03-17T15:17:34;12.80;74.90
44111;DHT22;29774;52.664;5.074;2024-03-17T15:19:59;12.80;74.50
44111;DHT22;29774;52.664;5.074;2024-03-17T15:22:26;12.90;74.20
44111;DHT22;29774;52.664;5.074;2024-03-17T15:24:52;12.90;74.10
44111;DHT22;29774;52.664;5.074;2024-03-17T15:27:18;12.90;74.00
44111;DHT22;29774;52.664;5.074;2024-03-17T15:29:44;12.90;74.10
44111;DHT22;29774;52.664;5.074;2024-03-17T15:32:10;12.90;74.10
44111;DHT22;29774;52.664;5.074;2024-03-17T15:34:37;12.90;74.00
44111;DHT22;29774;52.664;5.074;2024-03-17T15:37:03;12.90;74.10
44111;DHT22;29774;52.664;5.074;2024-03-17T15:39:29;12.90;74.00
44111;DHT22;29774;52.664;5.074;2024-03-17T15:41:55;12.80;74.00
44111;DHT22;29774;52.664;5.074;2024-03-17T15:44:20;12.80;74.00
44111;DHT22;29774;52.664;5.074;2024-03-17T15:46:48;12.80;74.20
44111;DHT22;29774;52.664;5.074;2024-03-17T15:49:15;12.70;74.80
44111;DHT22;29774;52.664;5.074;2024-03-17T15:51:40;12.70;75.70
44111;DHT22;29774;52.664;5.074;2024-03-17T15:54:06;12.70;75.90
44111;DHT22;29774;52.664;5.074;2024-03-17T15:56:32;12.60;76.00
44111;DHT22;29774;52.664;5.074;2024-03-17T15:59:01;12.60;75.90
44111;DHT22;29774;52.664;5.074;2024-03-17T16:01:27;12.50;76.10
44111;DHT22;29774;52.664;5.074;2024-03-17T16:03:53;12.50;76.00
44111;DHT22;29774;52.664;5.074;2024-03-17T16:06:19;12.50;76.10
44111;DHT22;29774;52.664;5.074;2024-03-17T16:08:48;12.50;75.80